CYZS

Coral Harbour Airport

Coral Harbour, Canada
TAF CYZS 211840Z 2119/2207 27018KT P6SM BKN080 TEMPO 2119/2201 P6SM -SHRA FEW040CB BKN080 BECMG 2122/2124 34012KT FM220500 06005KT P6SM BKN050 RMK NXT FCST BY 220100Z
Issued Valid From Valid To
Jul-21 @ 18:40 UTC
(4 hours ago)
Jul-21 @ 19:00 UTC
(4 hours ago)
Jul-22 @ 07:00 UTC
(in 8 hours)
Expired Click to View Jul-21 @ 19:00 to Jul-21 @ 22:00
TAF CYZS 211840Z 2119/2207 27018KT P6SM BKN080
Wind Visibility Clouds
270° at 18 knots Greater than 6 miles
  • Broken at 8,000' AGL
Temporary Jul-21 @ 19:00 to Jul-22 @ 01:00
TEMPO 2119/2201 P6SM -SHRA FEW040CB BKN080
Visibility Clouds Conditions
Greater than 6 miles
  • Few at 4,000' AGL
  • Broken at 8,000' AGL
  • Light Rain
Becoming Jul-21 @ 22:00 to Jul-22 @ 05:00
BECMG 2122/2124 34012KT
Wind Visibility Clouds
340° at 12 knots Greater than 6 miles
  • Broken at 8,000' AGL
From Jul-22 @ 05:00 to Jul-22 @ 07:00
FM220500 06005KT P6SM BKN050 RMK NXT FCST BY 220100Z
Wind Visibility Clouds
60° at 5 knots Greater than 6 miles
  • Broken at 5,000' AGL
TAF CYZS 211840Z 2119/2207 27018KT P6SM BKN080 TEMPO 2119/2201 P6SM -SHRA FEW040CB BKN080 BECMG 2122/2124 34012KT FM220500 06005KT P6SM BKN050 RMK NXT FCST BY 220100Z
Issued Jul-21 @ 18:40 UTC
(4 hours ago)
Valid From Jul-21 @ 19:00 UTC
(4 hours ago)
Valid To Jul-22 @ 07:00 UTC
(in 8 hours)
Jul-21 @ 19:00 - Jul-21 @ 22:00
Wind Visibility
270° at 18 knots Greater than 6 miles
Clouds
  • Broken at 8,000' AGL
Temporary Jul-21 @ 19:00 - Jul-22 @ 01:00
Clouds
  • Few at 4,000' AGL
  • Broken at 8,000' AGL
Conditions
  • Light Rain
Becoming Jul-21 @ 22:00 - Jul-22 @ 05:00
Wind Visibility
340° at 12 knots Greater than 6 miles
Clouds
  • Broken at 8,000' AGL
From Jul-22 @ 05:00 - Jul-22 @ 07:00
Wind Visibility
60° at 5 knots Greater than 6 miles
Clouds
  • Broken at 5,000' AGL